Terminal Aerodrome Forecast
Issued by NWS Hastings, NE

Home | Current Version | Previous Version | Text Only | Print | Product List | Glossary On
Versions: 1 2 3 4 5 6 7 8 9 10 11 12 13 14 15
000
FTUS43 KGID 201141
TAFGRI
TAF
KGRI 201141Z 2012/2112 21010KT P6SM FEW150
     FM202300 12007KT P6SM SCT100
     FM210000 09007KT P6SM VCTS SCT070CB
     FM210300 VRB05KT P6SM SCT100 WS008/19040KT
     FM211100 VRB04KT P6SM BKN100 WS008/22025KT=

USA.gov is the U.S. government's official web portal to all federal, state and local government web resources and services.